This site, now in its 15th season, is a labour of love and fun from one of Ottawa's most avid time trialists and number crunchers. It adheres to and is permitted by the laws of Canada, promotes the objectives of every bicycle club whose results are shown, and is donated free of charge by myself for your enjoyment and usage. If you would like results from series you ride in to be shown here, give me (celia@drmath.ca) a shout!


Index Page
ATT OTT WTT AATT CFCTT VVVTT
Help resultformat:
Case-sensitive

OBC Open TT Series - 1993-Aug-05 - 15km (Rockliffe Pkwy) (EvtFactor = 0.9545)

Weather (18:00): Mostly Cloudy. Temp.: 20.7C, Humidity: 44%, DewPoint: 8.1C, Wind: W 13km/h, Pressure: 100.24kPa, Visibility: 40.2km.
Weather (19:00): Mostly Cloudy. Temp.: 21.0C, Humidity: 42%, DewPoint: 7.6C, Wind: W 11km/h, Pressure: 100.24kPa, Visibility: 40.2km.
Weather (20:00): Mostly Cloudy. Temp.: 18.8C, Humidity: 51%, DewPoint: 8.3C, Wind: WSW 7km/h, Pressure: 100.31kPa, Visibility: 40.2km.

Send photos with description (when/where/what) of yourself on or off of bike to celia@drmath.ca

 
 

BESTS?
 
1 Large, John --- 19:49 45.416 1/60 OSEM 1/27 0.9974
2 Ketchum, Bruce --- 20:17 44.371 2/60 OSEM 2/27  
3 Bachman, Paul --- 20:39 43.584 3/60 OSEM 3/27 0.9832
4 Nowak, Denis --- 20:46 43.339 4/60 OSEM 4/27 1.0866
5 Parkin, Brian --- 20:49 43.235 5/60 OVAM 1/13 0.9715
6 Field, Kevin --- 20:50 43.200 6/60 OSEM 5/27  
7 Burge, Craig  --- 20:53 43.097 7/60 OSEM 6/27 0.9073
8 Aller, Brian OBC 21:03 42.755 8/60 OVAM 2/13 0.9579
9 Harper, Keith --- 21:04 42.722 9/60 OSEM 7/27  
10 Simpson, Bob OBC 21:12 42.453 10/60 OVBM 1/10 0.9422
11 MacDonald, Ryan OBC 21:13 42.419 11/60 OSEM 8/27 1.0723
12 Morewood, Arthur OBC 21:14 42.386 12/60 OVBM 2/10 1.0237
13 Griffiths, Chris OBC 21:21 42.155 13/60 OVBM 3/10  
Leach, Mike --- 21:21 42.155 13/60 OSEM 9/27 1.1524
15 Ferguson, James --- 21:24 42.056 15/60 OSEM 10/27 0.9450
16 Martignago, Mike OBC 21:25 42.023 16/60 OSEM 11/27 1.0474
17 Reinisch, Stephen OBC 21:27 41.958 17/60 OSEM 12/27 1.0962
18 Buffa, Alex  OBC 21:53 41.127 18/60 OSEM 13/27 0.9638
Krausbar, Gunther OBC 21:53 41.127 18/60 OSEM 13/27 1.1409
20 Brady, David OBC 21:55 41.065 20/60 OSEM 15/27 0.9484
21 Moerman, Bram  OBC 21:57 41.002 21/60 OVBM 4/10 0.8946
22 St-Amour, Pierre OBC 22:04 40.785 22/60 OVAM 3/13 0.8639
23 Bence, John OBC 22:07 40.693 23/60 OSEM 16/27 1.0205
24 Bachman, Mike --- 22:22 40.238 24/60 OVBM 5/10 1.0225
25 Heffler, Paul OBC 22:23 40.208 25/60 OSEM 17/27 0.9495
26 Tamborine, Don OBC 22:31 39.970 26/60 OVBM 6/10 1.1295
27 Budd, Daniel OBC 22:33 39.911 27/60 OSEM 18/27 0.9202
28 Beasley, Graham --- 22:34 39.882 28/60 OVBM 7/10 1.0427
29 Montpetit, Stephane OBC 22:35 39.852 29/60 OSEM 19/27 0.9715
30 Stewart, Ian OBC 22:47 39.503 30/60 OVAM 4/13 1.0401
31 Hollywood, Brandon OBC 22:51 39.387 31/60 OSEM 20/27 0.9675
32 White, Chris --- 22:52 39.359 32/60 OVAM 5/13 1.0110
33 Humphreys, Les  OBC/ABC 22:54 39.301 33/60 OVBM 8/10 1.1108
34 Callahan, Luc OBC 22:56 39.244 34/60 OSEM 21/27 0.9891
35 Leitch, Brendan OBC 22:58 39.187 35/60 OSEM 22/27 1.1246
36 Bowring, John --- 23:00 39.130 36/60 OJUM 1/4 1.0643
37 d'Arras, Robert --- 23:01 39.102 37/60 OVAM 6/13 0.9238
38 Pritlove, James OBC 23:05 38.989 38/60 OSEM 23/27  
39 Smallwood, Steve OBC 23:10 38.849 39/60 OVAM 7/13 0.9638
40 Austen, Ian  OBC 23:20 38.571 40/60 OVAM 8/13 1.0064
41 Romkey, Gary OBC 23:26 38.407 41/60 OVBM 9/10 1.1290
42 Hicks, Terry OBC 23:29 38.325 42/60 OVAM 9/13 1.0064
43 de Leon, Oscar --- 23:40 38.028 43/60 OSEM 24/27 1.0603
Moxley, Don OBC 23:40 38.028 43/60 OVBM 10/10  
45 Boileau, Greg OBC 23:41 38.001 45/60 OJUM 2/4 0.9481
46 Murray, Ken OBC 23:47 37.842 46/60 OCAM 1/1 1.0999
47 Vachon, Matthieu OBC 23:52 37.709 47/60 OJUM 3/4  
48 Montag, Daniel OBC 23:54 37.657 48/60 OVAM 10/13 1.0105
49 Anderson, Allan OBC 24:03 37.422 49/60 OVAM 11/13 0.9752
50 Hope, Walter --- 24:30 36.735 50/60 OVAM 12/13 1.0583
51 Barber, Brian OBC 24:41 36.462 51/60 OSEM 25/27 0.9463
52 Allen, Brent OBC 24:46 36.339 52/60 OSEM 26/27 1.0829
53 Hays, Ryan OBC 24:47 36.315 53/60 U18M 1/1 0.9063
54 Ajersch, Mary  OBC 25:01 35.976 54/60 OVBF 1/1 1.0757
55 Scruton, Robert OBC 25:07 35.833 55/60 OSEM 27/27 1.0343
56 McInnis, Celia  OBC 25:08 35.809 56/60 OVAF 1/1 0.9627
57 Aller, Mo OBC 25:17 35.597 57/60 OVCM 1/2 1.0099
58 James, Peter OBC 25:40 35.065 58/60 OVAM 13/13 1.1278
59 Smart, Eric OBC 26:03 34.549 59/60 OVCM 2/2 1.0369
60 Fortey, Brian OBC 27:23 32.867 60/60 OJUM 4/4 0.9927
 
Average Speed of all of the above 60 finishes (900km in 22:48:23):39.463
>>>Average of the Average Speeds for these 60 finishes39.646<<<
 

The number of data records shown above is 60
The server processing of your query took: 0 wallclock secs ( 0.06 usr + 0.00 sys = 0.06 CPU)

Thanks to our Helpers: Prapti Jensen, Phil Hunter, Jim Glover, Jean-Yves Guenette.

     


Apr 9 (Good Friday) Apr 15 Apr 22 (cancelled) Apr 27 Apr 29
May 4 (10km) May 6 May 11 May 11 (10km) May 13 (22km) May 16 (40km) May 18 May 18 (10km) May 20 May 25 May 25 (10km) May 27 (38km) May 30 (40km)
Jun 1 Jun 3 Jun 8 Jun 10 (22km) Jun 15 Jun 17 Jun 22 Jun 22 Jun 24 (38km) Jun 25 Jun 27 (40km/80km) Jun 29 Jun 29 Jun 30
Jul 6 Jul 6 Jul 8 Jul 13 Jul 13 Jul 15 (38km) Jul 20 Jul 20 Jul 22 Jul 25 (80km) Jul 27 Jul 29 (22km)
Aug 3 Aug 3
  Aug 5  
Aug 7 (38km) Aug 10 Aug 10 Aug 12 Aug 15 (40km/80km) Aug 17 Aug 19 Aug 21 (22km) Aug 24 Aug 24 Aug 26 Aug 29 (40km) Aug 31 (Invitational)
Sep 2 Sep 7 Sep 9 Sep 14 Sep 16 Sep 25 (40km)

OTT Rankings
Best       Best by category
WTT Rankings for OBC Members
5 Best 15km     5 Best 15km by category
OBC Member Best Three 15km Rankings
Overall     by category
OBC BAR Ranking
Overall     by category     Rider "Consistency-Graph"
ABC BAR Ranking
Overall     by category     Rider "Consistency-Graph"
Other years
TT Calculator All TT People All TT events
ABC Home VVV Home
CKAP GOLD MEDAL
Other Links

Please send your comments and suggestions to: Celia McInnis
Copyright © 1998-2011 Celia McInnis. All rights reserved. Links are welcomed.